Time;durP1;ratioP1;P1;durP2;ratioP2;P2;SDS_P1;SDS_P2;PMS_P1;PMS_P2;Temp;Humidity;BMP_temperature;BMP_pressure;BME280_temperature;BME280_humidity;BME280_pressure;Samples;Min_cycle;Max_cycle;Signal;HPM_P1;HPM_P2
2022/08/11 00:00:08;;;;;;;10.13;8.58;;;;;;;19.48;76.41;100530.52;1800052;79;21182;-56
2022/08/11 00:03:19;;;;;;;11.12;9.25;;;;;;;19.45;76.42;100529.60;1799805;79;21181;-56
2022/08/11 00:06:43;;;;;;;9.63;8.30;;;;;;;19.42;76.52;100521.73;1799560;79;21323;-55
2022/08/11 00:09:49;;;;;;;15.53;9.43;;;;;;;19.40;76.57;100509.47;1799736;79;21341;-55
2022/08/11 00:13:10;;;;;;;10.75;8.80;;;;;;;19.40;76.68;100511.39;1781376;80;21540;-56
2022/08/11 00:16:25;;;;;;;9.98;8.98;;;;;;;19.38;76.72;100508.84;1767760;80;21228;-55
2022/08/11 00:19:41;;;;;;;10.40;8.75;;;;;;;19.37;76.81;100504.38;1764418;80;21256;-54
2022/08/11 00:22:50;;;;;;;10.30;9.30;;;;;;;19.37;76.88;100494.66;1797944;80;21705;-55
2022/08/11 00:25:59;;;;;;;10.58;9.08;;;;;;;19.38;76.99;100498.30;1805664;79;21248;-55
2022/08/11 00:29:04;;;;;;;9.53;8.45;;;;;;;19.39;77.07;100498.59;1808133;79;21185;-56
2022/08/11 00:32:11;;;;;;;11.03;8.78;;;;;;;19.42;77.11;100490.66;1782731;79;21178;-56
2022/08/11 00:35:16;;;;;;;11.20;9.38;;;;;;;19.44;77.14;100484.87;1808066;79;21212;-55
2022/08/11 00:38:11;;;;;;;11.85;8.85;;;;;;;19.43;77.18;100493.73;1806014;79;21776;-55
2022/08/11 00:41:30;;;;;;;10.35;8.88;;;;;;;19.44;77.19;100494.59;1784297;77;21200;-55
2022/08/11 00:44:59;;;;;;;10.85;8.83;;;;;;;19.43;77.22;100485.41;1772402;79;21192;-55
2022/08/11 00:48:36;;;;;;;10.70;9.60;;;;;;;19.43;77.30;100480.38;1763924;81;21216;-55
2022/08/11 00:51:55;;;;;;;9.45;8.45;;;;;;;19.42;77.36;100478.16;1772254;80;21267;-55
2022/08/11 00:55:48;;;;;;;11.63;8.48;;;;;;;19.40;77.40;100485.01;1772624;80;21212;-55
2022/08/11 00:59:17;;;;;;;9.75;8.75;;;;;;;19.40;77.47;100480.31;1759334;80;21155;-56
2022/08/11 01:02:33;;;;;;;10.10;9.10;;;;;;;19.39;77.53;100493.91;1772274;80;21252;-55
2022/08/11 01:06:29;;;;;;;12.93;7.92;;;;;;;19.41;77.62;100486.73;1772201;80;21181;-57
2022/08/11 01:10:19;;;;;;;10.90;8.58;;;;;;;19.43;77.68;100490.95;1767346;80;21172;-56
2022/08/11 01:14:18;;;;;;;10.18;8.33;;;;;;;19.46;77.74;100499.35;1759182;80;21247;-58
2022/08/11 01:17:52;;;;;;;9.85;8.28;;;;;;;19.46;77.78;100491.02;1774527;81;21204;-56
2022/08/11 01:21:14;;;;;;;9.43;8.45;;;;;;;19.47;77.85;100498.30;1768625;80;21185;-54
2022/08/11 01:24:39;;;;;;;9.80;8.80;;;;;;;19.48;77.91;100501.37;1772741;80;21181;-56
2022/08/11 01:28:07;;;;;;;11.22;8.90;;;;;;;19.49;77.98;100494.75;1772495;80;21201;-57
2022/08/11 01:32:10;;;;;;;11.85;8.13;;;;;;;19.49;78.02;100501.13;1774464;81;21231;-57
2022/08/11 01:35:43;;;;;;;11.03;8.20;;;;;;;19.52;78.09;100506.78;1770450;80;21263;-54
2022/08/11 01:39:44;;;;;;;9.78;8.30;;;;;;;19.52;78.13;100496.50;1757264;81;21252;-55
2022/08/11 01:50:58;;;;;;;10.65;8.33;;;;;;;19.59;78.27;100493.66;1767717;81;21168;-57
2022/08/11 01:54:11;;;;;;;12.25;9.18;;;;;;;19.53;78.20;100475.15;1764371;81;21184;-57
2022/08/11 01:57:34;;;;;;;10.45;8.98;;;;;;;19.48;78.24;100474.98;1710825;83;21208;-57
2022/08/11 02:00:44;;;;;;;12.50;8.40;;;;;;;19.46;78.31;100441.04;1757346;81;21488;-56
2022/08/11 02:04:14;;;;;;;9.40;8.28;;;;;;;19.44;78.36;100455.72;1764329;81;21161;-57
2022/08/11 02:07:30;;;;;;;11.15;9.15;;;;;;;19.40;78.37;100465.58;1783602;80;21200;-58
2022/08/11 02:14:39;;;;;;;10.57;9.47;;;;;;;19.38;78.58;100462.20;1735115;82;21181;-56
2022/08/11 02:18:04;;;;;;;10.43;9.38;;;;;;;19.36;78.66;100469.91;1783013;80;21195;-56
2022/08/11 02:24:28;;;;;;;11.15;9.35;;;;;;;19.37;78.85;100477.14;1783514;80;21176;-56
2022/08/11 02:27:46;;;;;;;11.22;9.55;;;;;;;19.39;78.92;100483.33;1778019;80;21247;-56
2022/08/11 02:35:20;;;;;;;11.70;9.83;;;;;;;19.38;78.96;100494.95;1782820;80;21172;-58
2022/08/11 02:39:02;;;;;;;14.05;9.20;;;;;;;19.36;78.97;100496.28;1778012;80;21188;-56
2022/08/11 02:42:29;;;;;;;12.37;8.73;;;;;;;19.36;79.08;100494.89;1775670;78;21192;-55
2022/08/11 02:45:53;;;;;;;12.73;9.40;;;;;;;19.36;79.18;100493.50;1764719;81;21224;-56
2022/08/11 02:53:14;;;;;;;10.25;9.08;;;;;;;19.42;79.41;100485.11;1764592;81;21228;-56
2022/08/11 02:56:45;;;;;;;12.93;10.13;;;;;;;19.45;79.47;100486.03;1771546;80;21189;-57
2022/08/11 03:00:15;;;;;;;11.68;9.58;;;;;;;19.47;79.52;100491.35;1712893;82;21197;-56
2022/08/11 03:03:43;;;;;;;12.93;9.10;;;;;;;19.51;79.62;100496.73;1772401;80;21231;-55
2022/08/11 03:06:58;;;;;;;14.45;9.05;;;;;;;19.55;79.66;100497.42;1772353;81;21216;-54
2022/08/11 03:10:40;;;;;;;9.90;8.93;;;;;;;19.55;79.64;100497.42;1769511;80;21176;-54
2022/08/11 03:18:41;;;;;;;12.33;10.00;;;;;;;19.60;79.70;100512.03;1764342;80;21342;-55
2022/08/11 03:21:56;;;;;;;10.68;9.25;;;;;;;19.61;79.76;100499.84;1764715;80;21188;-55
2022/08/11 03:25:11;;;;;;;11.00;8.75;;;;;;;19.62;79.77;100500.98;1773800;80;21283;-57
2022/08/11 03:28:27;;;;;;;9.18;8.28;;;;;;;19.66;79.79;100502.77;1777639;80;21196;-56
2022/08/11 03:31:39;;;;;;;12.25;8.25;;;;;;;19.69;79.79;100498.14;1766250;81;21184;-57
2022/08/11 03:34:46;;;;;;;9.38;8.45;;;;;;;19.71;79.82;100499.59;1777886;80;21189;-55
2022/08/11 03:38:08;;;;;;;10.45;9.03;;;;;;;19.75;79.83;100500.84;1778161;80;21252;-55
2022/08/11 03:45:03;;;;;;;11.93;8.93;;;;;;;19.83;79.89;100511.64;1674552;81;21244;-55
2022/08/11 03:48:20;;;;;;;9.95;7.92;;;;;;;19.90;79.97;100502.66;1760783;81;21685;-56
2022/08/11 03:51:38;;;;;;;10.20;8.85;;;;;;;19.98;79.98;100514.85;1763482;81;21165;-55
2022/08/11 03:55:29;;;;;;;10.48;8.18;;;;;;;20.08;79.97;100517.08;1731505;80;21221;-55
2022/08/11 03:59:16;;;;;;;9.65;8.20;;;;;;;20.16;79.96;100507.91;1729640;82;21256;-57
2022/08/11 04:02:41;;;;;;;9.35;8.25;;;;;;;20.27;80.07;100510.43;1703510;83;21315;-55
2022/08/11 04:06:28;;;;;;;9.23;8.33;;;;;;;20.41;80.11;100516.09;1715202;83;21747;-55
2022/08/11 04:10:22;;;;;;;11.78;8.85;;;;;;;20.53;80.07;100519.79;1762327;81;21189;-55
2022/08/11 04:15:58;;;;;;;11.57;8.13;;;;;;;20.66;80.09;100523.77;1700302;83;21254;-55
2022/08/11 04:17:35;;;;;;;9.55;8.58;;;;;;;20.80;80.05;100530.25;1699082;84;21249;-57
2022/08/11 04:21:08;;;;;;;10.68;9.05;;;;;;;20.92;80.00;100535.84;1731792;82;21185;-57
2022/08/11 04:24:47;;;;;;;10.05;8.38;;;;;;;21.03;79.93;100533.66;1755051;81;21165;-58
2022/08/11 04:28:36;;;;;;;13.08;8.83;;;;;;;21.15;79.95;100544.82;1770366;81;21177;-55
2022/08/11 04:32:14;;;;;;;12.05;9.08;;;;;;;21.21;79.82;100543.31;1726591;83;21229;-57
2022/08/11 04:36:08;;;;;;;13.00;9.13;;;;;;;21.21;79.73;100552.20;1679600;84;21757;-55
2022/08/11 05:02:15;;;;;;;10.85;8.93;;;;;;;22.13;79.78;100559.13;1832109;77;28569;-56
2022/08/11 05:05:56;;;;;;;11.93;9.18;;;;;;;22.17;79.65;100557.52;1849452;76;21573;-54
2022/08/11 05:09:47;;;;;;;12.43;10.75;;;;;;;22.21;79.61;100562.35;1806105;78;21181;-55
2022/08/11 05:37:37;;;;;;;14.05;9.58;;;;;;;22.81;80.29;100566.94;1785968;79;21753;-53
2022/08/11 05:58:12;;;;;;;10.05;8.68;;;;;;;23.58;80.18;100586.16;1832765;78;21377;-53
2022/08/11 06:01:23;;;;;;;9.18;8.28;;;;;;;23.69;80.07;100577.41;1804579;79;21211;-55
2022/08/11 06:04:31;;;;;;;11.83;8.85;;;;;;;23.76;79.96;100567.73;1811762;77;21606;-51
2022/08/11 06:07:38;;;;;;;15.40;10.15;;;;;;;23.84;79.86;100570.62;1799228;79;22013;-54
2022/08/11 06:10:50;;;;;;;14.33;8.98;;;;;;;23.85;79.66;100567.56;1802316;79;21271;-53
2022/08/11 06:13:56;;;;;;;9.63;8.30;;;;;;;23.87;79.55;100568.16;1775275;80;21183;-53
2022/08/11 06:17:07;;;;;;;13.40;8.35;;;;;;;23.88;79.52;100555.04;1805548;79;21322;-53
2022/08/11 06:20:17;;;;;;;12.35;8.30;;;;;;;23.95;79.52;100567.72;1811345;79;21224;-54
2022/08/11 06:23:24;;;;;;;12.40;7.75;;;;;;;24.04;79.54;100560.59;1838680;78;21310;-54
2022/08/11 06:26:29;;;;;;;10.45;7.80;;;;;;;24.15;79.52;100565.80;1838512;78;21259;-53
2022/08/11 06:29:41;;;;;;;13.62;8.13;;;;;;;24.21;79.31;100566.14;1800329;79;21220;-53
2022/08/11 06:32:53;;;;;;;14.25;8.53;;;;;;;;;;1805982;78;21208;-53
2022/08/11 06:36:41;;;;;;;10.95;8.40;;;;;;;24.23;78.91;100561.97;1791807;79;21275;-54
2022/08/11 06:40:09;;;;;;;14.13;7.60;;;;;;;24.25;78.76;100562.56;1802639;79;21978;-53
2022/08/11 06:43:32;;;;;;;11.08;7.87;;;;;;;24.26;78.66;100570.41;1806839;79;21228;-55
2022/08/11 06:46:42;;;;;;;19.05;8.38;;;;;;;24.28;78.64;100569.58;1802888;79;21776;-55
2022/08/11 06:53:18;;;;;;;13.50;8.10;;;;;;;24.37;78.47;100566.05;1802980;78;21729;-54
2022/08/11 07:03:45;;;;;;;21.23;9.55;;;;;;;24.48;78.22;100568.44;1790282;77;21259;-52
2022/08/11 07:32:03;;;;;;;16.87;10.65;;;;;;;24.84;77.34;100569.16;1766881;81;21835;-54
2022/08/11 07:35:21;;;;;;;15.23;8.93;;;;;;;24.80;77.25;100564.62;1713360;82;21273;-55
2022/08/11 07:41:51;;;;;;;10.45;9.25;;;;;;;24.81;76.99;100573.34;1666756;86;21219;-54
2022/08/11 07:55:24;;;;;;;12.50;9.08;;;;;;;25.05;76.71;100571.88;1657875;85;21818;-54
2022/08/11 08:18:59;;;;;;;13.93;10.15;;;;;;;26.21;75.92;100560.98;1662105;86;21192;-54
2022/08/11 08:22:06;;;;;;;16.23;10.32;;;;;;;26.39;75.99;100565.27;1720494;81;21254;-54
2022/08/11 08:25:16;;;;;;;22.02;15.53;;;;;;;26.58;75.80;100562.25;1737424;81;21215;-57
2022/08/11 08:28:25;;;;;;;12.80;10.23;;;;;;;26.72;75.59;100566.25;1726910;82;21238;-56
2022/08/11 08:31:32;;;;;;;14.60;12.15;;;;;;;26.85;75.42;100567.67;1720285;82;21225;-56
2022/08/11 08:34:46;;;;;;;12.40;10.93;;;;;;;26.85;75.02;100569.08;1711674;82;21215;-56
2022/08/11 08:37:52;;;;;;;14.20;11.48;;;;;;;26.82;74.79;100562.06;1694794;84;21174;-57
2022/08/11 08:41:00;;;;;;;14.28;11.30;;;;;;;26.77;74.68;100571.89;1691907;84;21250;-58
2022/08/11 08:44:17;;;;;;;12.43;10.53;;;;;;;26.87;74.68;100566.30;1689418;83;21754;-57
2022/08/11 08:47:24;;;;;;;17.15;10.15;;;;;;;26.95;74.48;100569.11;1695367;84;21565;-57
2022/08/11 08:53:44;;;;;;;18.92;11.15;;;;;;;27.13;73.93;100569.41;1690708;81;21739;-57
2022/08/11 08:56:51;;;;;;;14.60;10.28;;;;;;;27.17;73.65;100573.91;1713176;83;21274;-55
2022/08/11 08:59:59;;;;;;;19.48;10.28;;;;;;;27.13;73.20;100572.22;1677636;84;21752;-56
2022/08/11 09:03:06;;;;;;;16.93;10.35;;;;;;;27.05;72.96;100581.20;1728543;81;21222;-56
2022/08/11 09:06:18;;;;;;;14.35;10.88;;;;;;;26.92;72.66;100580.36;1696152;83;21244;-56
2022/08/11 09:09:28;;;;;;;14.65;10.48;;;;;;;26.75;72.37;100584.53;1693896;84;21784;-56
2022/08/11 09:12:41;;;;;;;21.15;11.75;;;;;;;26.53;72.22;100587.50;1704883;83;21203;-55
2022/08/11 09:15:49;;;;;;;17.27;10.65;;;;;;;26.39;72.36;100574.55;1722047;83;21637;-56
2022/08/11 09:18:55;;;;;;;17.10;11.38;;;;;;;26.37;72.48;100575.38;1697294;84;21593;-55
2022/08/11 09:28:54;;;;;;;15.53;10.53;;;;;;;26.61;72.55;100583.34;1723893;82;21199;-56
2022/08/11 09:31:59;;;;;;;14.73;10.58;;;;;;;26.75;72.65;100589.57;1723689;82;21194;-57
2022/08/11 09:35:06;;;;;;;14.78;10.80;;;;;;;26.84;72.38;100593.55;1687990;84;21276;-56
2022/08/11 09:41:38;;;;;;;12.90;10.70;;;;;;;27.11;72.30;100596.98;1657195;83;21591;-56
2022/08/11 09:44:51;;;;;;;18.60;10.55;;;;;;;27.26;72.05;100604.04;1636617;86;21267;-55
2022/08/11 09:48:00;;;;;;;17.27;10.60;;;;;;;27.36;71.82;100601.25;1629352;88;21603;-55
2022/08/11 09:51:07;;;;;;;14.40;10.48;;;;;;;27.45;71.57;100591.11;1691842;84;21349;-55
2022/08/11 09:54:12;;;;;;;11.10;9.75;;;;;;;27.55;71.44;100593.94;1690882;84;21279;-55
2022/08/11 10:00:52;;;;;;;13.48;10.20;;;;;;;27.75;71.07;100609.38;1630389;87;21240;-57
2022/08/11 10:04:00;;;;;;;14.25;9.70;;;;;;;27.85;70.76;100613.59;1678211;84;21238;-57
2022/08/11 10:07:09;;;;;;;14.83;9.75;;;;;;;27.95;70.50;100618.95;1640189;87;21224;-56
2022/08/11 10:10:14;;;;;;;14.83;9.60;;;;;;;27.99;70.19;100625.72;1619573;87;21304;-56
2022/08/11 10:13:35;;;;;;;16.30;10.10;;;;;;;28.03;70.00;100628.23;1680415;84;21756;-56
2022/08/11 10:17:06;;;;;;;13.88;11.75;;;;;;;27.96;69.50;100624.30;1666586;84;22179;-59
2022/08/11 10:20:24;;;;;;;17.05;10.60;;;;;;;27.69;69.25;100629.36;1628972;86;22043;-57
2022/08/11 10:27:04;;;;;;;12.05;8.75;;;;;;;27.59;69.33;100630.79;1694399;84;21326;-58
2022/08/11 10:34:00;;;;;;;17.35;11.33;;;;;;;27.60;69.25;100627.69;1628103;87;21555;-58
2022/08/11 10:37:08;;;;;;;13.50;10.45;;;;;;;27.67;69.19;100633.86;1633393;86;21228;-56
2022/08/11 10:40:16;;;;;;;16.05;9.78;;;;;;;27.68;68.94;100633.31;1658698;85;21266;-57
2022/08/11 10:43:22;;;;;;;12.20;9.28;;;;;;;27.64;68.82;100631.61;1675220;82;21279;-56
2022/08/11 11:00:16;;;;;;;10.82;9.03;;;;;;;27.72;68.42;100643.72;1688062;83;21286;-57
2022/08/11 11:03:39;;;;;;;15.43;8.65;;;;;;;27.84;68.46;100640.63;1723392;81;21202;-59
2022/08/11 11:07:13;;;;;;;14.58;9.40;;;;;;;27.91;68.23;100640.37;1693022;83;21203;-58
2022/08/11 11:10:21;;;;;;;12.45;9.18;;;;;;;27.91;68.14;100634.73;1675654;84;21241;-58
2022/08/11 11:20:25;;;;;;;10.82;9.10;;;;;;;28.05;67.92;100642.88;1683760;84;21255;-56
2022/08/11 11:23:55;;;;;;;13.83;10.50;;;;;;;28.04;67.80;100638.35;1701575;83;21211;-58
2022/08/11 11:27:25;;;;;;;13.60;10.13;;;;;;;28.04;67.62;100643.42;1717563;83;21195;-59
2022/08/11 11:30:32;;;;;;;14.10;9.45;;;;;;;28.04;67.59;100638.35;1723991;83;21264;-60
2022/08/11 11:33:50;;;;;;;16.20;10.10;;;;;;;28.05;67.56;100638.06;1666288;85;21234;-59
2022/08/11 11:37:05;;;;;;;16.25;9.93;;;;;;;28.10;67.42;100635.83;1680439;84;21205;-57
2022/08/11 11:40:20;;;;;;;13.85;10.95;;;;;;;28.08;67.29;100635.27;1697532;84;21246;-57
2022/08/11 11:43:26;;;;;;;15.13;10.13;;;;;;;28.05;67.20;100630.20;1722142;82;21238;-55
2022/08/11 11:46:35;;;;;;;14.47;11.38;;;;;;;28.06;67.20;100636.11;1688988;84;21350;-58
2022/08/11 11:49:43;;;;;;;16.80;10.50;;;;;;;28.04;67.12;100641.16;1679412;85;21237;-58
2022/08/11 11:52:50;;;;;;;18.10;10.75;;;;;;;28.06;67.09;100648.22;1725544;82;21202;-57
2022/08/11 11:55:58;;;;;;;13.00;10.10;;;;;;;28.11;67.10;100639.77;1689592;85;21219;-60
2022/08/11 12:02:32;;;;;;;12.43;10.18;;;;;;;28.89;67.38;100626.83;1690493;85;21208;-59
2022/08/11 12:05:42;;;;;;;12.05;10.60;;;;;;;28.89;67.38;100626.83;1725343;82;21750;-59
2022/08/11 12:08:48;;;;;;;18.85;10.50;;;;;;;28.98;66.49;100627.89;1678785;84;21292;-58
2022/08/11 12:15:21;;;;;;;12.53;10.55;;;;;;;28.99;66.05;100625.34;1669032;84;21798;-59
2022/08/11 12:18:31;;;;;;;13.18;10.08;;;;;;;28.91;66.08;100625.95;1663913;85;21720;-59
2022/08/11 12:21:37;;;;;;;14.87;10.70;;;;;;;28.95;65.89;100633.56;1632563;87;21248;-56
2022/08/11 12:28:11;;;;;;;17.02;10.15;;;;;;;28.85;65.48;100635.02;1661777;84;21520;-58
2022/08/11 12:31:21;;;;;;;12.98;10.35;;;;;;;28.76;65.56;100635.35;1640627;86;21557;-58
2022/08/11 12:34:27;;;;;;;13.62;9.98;;;;;;;28.64;65.48;100630.59;1672075;84;21347;-58
2022/08/11 12:37:39;;;;;;;13.70;10.30;;;;;;;28.53;65.39;100631.77;1670294;85;21214;-57
2022/08/11 12:55:09;;;;;;;12.60;10.80;;;;;;;28.34;65.46;100618.56;1704416;83;21332;-57
2022/08/11 12:58:16;;;;;;;18.37;11.78;;;;;;;28.36;65.41;100628.43;1710587;82;21268;-58
2022/08/11 13:05:01;;;;;;;13.93;11.18;;;;;;;28.26;65.27;100626.22;1703178;82;21211;-58
2022/08/11 13:08:08;;;;;;;17.17;11.60;;;;;;;28.24;65.37;100616.63;1707433;83;21593;-58
2022/08/11 13:14:40;;;;;;;18.20;12.63;;;;;;;28.30;65.05;100620.28;1654429;86;21724;-59
2022/08/11 13:17:47;;;;;;;16.77;12.45;;;;;;;28.35;65.12;100609.83;1668354;84;21787;-58
2022/08/11 13:21:02;;;;;;;13.50;12.05;;;;;;;28.44;65.14;100614.31;1708251;82;21830;-58
2022/08/11 13:24:08;;;;;;;13.97;12.43;;;;;;;28.55;65.02;100607.53;1680908;83;21210;-54
2022/08/11 13:27:13;;;;;;;14.95;11.30;;;;;;;28.63;64.80;100606.94;1699499;82;21219;-57
2022/08/11 13:33:55;;;;;;;26.95;12.55;;;;;;;28.73;64.51;100606.90;1641334;86;21878;-59
2022/08/11 13:37:05;;;;;;;22.07;12.45;;;;;;;28.70;63.92;100596.20;1671815;84;21282;-59
2022/08/11 13:40:13;;;;;;;16.32;12.23;;;;;;;28.66;64.35;100602.13;1688609;83;21238;-58
2022/08/11 13:43:22;;;;;;;16.55;11.88;;;;;;;28.66;64.35;100602.13;1691400;84;21756;-59
2022/08/11 13:46:30;;;;;;;17.50;12.33;;;;;;;28.63;64.06;100590.03;1721663;81;21231;-58
2022/08/11 13:49:42;;;;;;;15.38;12.28;;;;;;;28.62;63.97;100592.58;1731934;81;21266;-58
2022/08/11 13:52:50;;;;;;;16.17;11.55;;;;;;;28.63;64.05;100583.84;1724776;83;21215;-58
2022/08/11 13:55:56;;;;;;;17.82;12.07;;;;;;;28.60;63.83;100578.78;1724729;81;21274;-59
2022/08/11 13:59:05;;;;;;;13.43;11.90;;;;;;;28.61;63.92;100576.79;1725469;83;21537;-58
2022/08/11 14:02:14;;;;;;;14.47;11.80;;;;;;;28.63;63.72;100568.34;1726077;83;21632;-58
2022/08/11 14:05:28;;;;;;;17.00;12.18;;;;;;;28.63;63.72;100568.34;1686800;83;21215;-58
2022/08/11 14:08:41;;;;;;;15.10;12.30;;;;;;;28.61;63.68;100565.52;1728347;81;22076;-59
2022/08/11 14:15:18;;;;;;;15.03;11.68;;;;;;;28.56;63.66;100571.20;1715000;82;21266;-57
2022/08/11 14:18:35;;;;;;;19.42;12.33;;;;;;;28.53;63.63;100566.13;1725756;81;21250;-57
2022/08/11 14:25:08;;;;;;;17.17;12.88;;;;;;;28.41;63.56;100558.00;1725654;83;21222;-56
2022/08/11 14:28:15;;;;;;;15.75;11.68;;;;;;;28.39;63.62;100556.58;1726030;81;21206;-59
2022/08/11 14:31:24;;;;;;;17.30;13.18;;;;;;;28.37;63.56;100552.65;1725645;83;21274;-59
2022/08/11 14:34:33;;;;;;;18.62;11.50;;;;;;;28.32;63.55;100559.70;1718082;83;21740;-59
2022/08/11 14:37:40;;;;;;;15.10;12.58;;;;;;;28.24;63.50;100545.40;1725828;82;21553;-59
2022/08/11 14:47:47;;;;;;;17.15;12.43;;;;;;;28.01;63.57;100535.62;1721465;83;21274;-58
2022/08/11 14:50:51;;;;;;;20.45;13.65;;;;;;;27.94;63.63;100539.88;1692661;83;21231;-58
2022/08/11 14:56:35;;;;;;;19.98;13.58;;;;;;;27.88;63.68;100527.77;1685669;84;21271;-59
2022/08/11 14:57:08;;;;;;;20.20;12.58;;;;;;;27.86;63.71;100526.62;1688681;85;21234;-59
2022/08/11 15:00:17;;;;;;;14.13;12.28;;;;;;;27.80;63.72;100514.25;1687395;83;21883;-59
2022/08/11 15:03:22;;;;;;;20.20;13.48;;;;;;;27.73;63.75;100507.52;1695779;83;21581;-58
2022/08/11 15:06:29;;;;;;;16.67;13.08;;;;;;;27.68;63.74;100506.70;1682217;84;21227;-58
2022/08/11 15:09:37;;;;;;;18.37;13.35;;;;;;;27.62;63.76;100498.81;1690896;84;21207;-58
2022/08/11 15:12:45;;;;;;;18.85;14.13;;;;;;;27.56;63.73;100497.70;1689588;85;21237;-59
2022/08/11 15:19:16;;;;;;;15.90;13.45;;;;;;;27.43;63.82;100492.69;1656096;85;21254;-59
2022/08/11 15:25:45;;;;;;;18.15;14.20;;;;;;;27.29;63.98;100485.38;1656338;85;21836;-59
2022/08/11 15:39:36;;;;;;;22.60;15.00;;;;;;;27.07;64.22;100477.77;1727288;83;21202;-57
2022/08/11 15:46:25;;;;;;;19.32;13.70;;;;;;;27.02;64.36;100474.95;1717195;83;21215;-58
2022/08/11 15:49:40;;;;;;;19.52;13.38;;;;;;;27.03;64.42;100489.31;1725791;81;21882;-58
2022/08/11 15:53:02;;;;;;;22.93;14.18;;;;;;;27.05;64.46;100499.69;1728762;83;21763;-58
2022/08/11 15:56:07;;;;;;;19.52;14.53;;;;;;;27.03;64.43;100506.17;1729901;81;21293;-56
2022/08/11 16:05:55;;;;;;;19.62;13.78;;;;;;;26.94;64.28;100516.85;1697249;83;21242;-58
2022/08/11 16:09:04;;;;;;;17.62;14.53;;;;;;;26.90;64.24;100526.39;1657650;86;21207;-60
2022/08/11 16:12:16;;;;;;;20.00;13.98;;;;;;;26.86;64.23;100528.06;1656136;85;21822;-58
2022/08/11 16:18:55;;;;;;;18.15;13.98;;;;;;;26.82;64.17;100531.71;1694225;82;21745;-59
2022/08/11 16:22:06;;;;;;;23.35;15.30;;;;;;;26.81;64.16;100539.32;1689303;84;21863;-60
2022/08/11 16:25:12;;;;;;;27.10;14.83;;;;;;;26.79;64.14;100539.30;1687440;84;21227;-57
2022/08/11 16:28:19;;;;;;;22.60;14.85;;;;;;;26.77;64.13;100537.31;1716184;83;21612;-59
2022/08/11 16:31:27;;;;;;;21.12;15.03;;;;;;;26.74;64.09;100532.26;1711163;83;22060;-59
2022/08/11 16:48:19;;;;;;;20.55;13.93;;;;;;;26.55;63.81;100545.95;1684543;83;21233;-58
2022/08/11 16:51:29;;;;;;;17.48;13.05;;;;;;;26.50;63.72;100551.55;1684446;84;21286;-58
2022/08/11 16:54:39;;;;;;;21.35;13.75;;;;;;;26.41;63.65;100549.86;1683162;83;21762;-58
2022/08/11 17:01:07;;;;;;;19.15;13.78;;;;;;;26.26;63.55;100554.54;1686801;84;21239;-58
2022/08/11 17:15:02;;;;;;;18.92;14.10;;;;;;;25.92;63.43;100556.89;1690618;83;21279;-58
2022/08/11 17:18:09;;;;;;;18.07;13.60;;;;;;;25.83;63.38;100553.47;1657770;84;21362;-59
2022/08/11 17:21:25;;;;;;;16.73;12.65;;;;;;;25.74;63.38;100555.93;1693853;83;21267;-58
2022/08/11 17:24:32;;;;;;;18.20;14.05;;;;;;;25.66;63.40;100560.64;1661608;85;21356;-59
2022/08/11 17:27:38;;;;;;;17.05;13.28;;;;;;;25.57;63.44;100565.08;1686050;83;21566;-59
2022/08/11 17:37:32;;;;;;;18.52;13.68;;;;;;;25.38;63.52;100573.61;1693514;83;21219;-57
2022/08/11 17:48:23;;;;;;;17.85;13.25;;;;;;;25.32;63.50;100580.27;1638212;86;21251;-57
2022/08/11 17:50:35;;;;;;;14.05;12.43;;;;;;;25.13;63.45;100590.73;1678269;84;21227;-58
2022/08/11 18:00:38;;;;;;;17.25;12.80;;;;;;;24.94;63.35;100599.50;1718940;82;21259;-58
2022/08/11 18:03:46;;;;;;;20.43;13.50;;;;;;;24.86;63.32;100599.97;1703023;83;21242;-57
2022/08/11 18:06:55;;;;;;;18.98;12.75;;;;;;;24.80;63.32;100607.22;1725901;83;21784;-58
